createdAt,value
2022-08-08T00:00:54.655Z,102390.25
2022-08-08T00:03:31.457Z,102397.69
2022-08-08T00:06:36.737Z,102405.56
2022-08-08T00:09:17.150Z,102400.84
2022-08-08T00:12:10.199Z,102405.97
2022-08-08T00:15:00.003Z,102403.34
2022-08-08T00:17:48.122Z,102404.72
2022-08-08T00:20:44.402Z,102404.94
2022-08-08T00:23:24.333Z,102403.44
2022-08-08T00:25:56.590Z,102408.53
2022-08-08T00:28:34.918Z,102410.03
2022-08-08T00:32:21.541Z,102408.41
2022-08-08T00:34:20.043Z,102410.38
2022-08-08T00:36:51.817Z,102411.50
2022-08-08T00:41:05.972Z,102414.66
2022-08-08T00:42:54.032Z,102409.41
2022-08-08T00:45:59.792Z,102411.38
2022-08-08T00:48:42.820Z,102408.13
2022-08-08T00:51:59.356Z,102407.31
2022-08-08T00:55:03.189Z,102401.25
2022-08-08T00:58:13.667Z,102395.22
2022-08-08T01:01:04.761Z,102397.50
2022-08-08T01:04:08.132Z,102396.56
2022-08-08T01:07:23.777Z,102391.34
2022-08-08T01:10:36.063Z,102400.50
2022-08-08T01:13:43.673Z,102391.00
2022-08-08T01:16:39.987Z,102391.00
2022-08-08T01:20:13.152Z,102390.53
2022-08-08T01:24:05.653Z,102387.59
2022-08-08T01:26:49.163Z,102393.81
2022-08-08T01:29:59.369Z,102391.22
2022-08-08T01:33:33.691Z,102396.63
2022-08-08T01:36:08.413Z,102400.44
2022-08-08T01:39:06.735Z,102396.81
2022-08-08T01:42:01.733Z,102390.31
2022-08-08T01:44:50.356Z,102392.25
2022-08-08T01:48:14.824Z,102390.31
2022-08-08T01:51:31.872Z,102390.97
2022-08-08T01:55:17.986Z,102392.81
2022-08-08T01:58:11.310Z,102397.41
2022-08-08T02:00:58.179Z,102382.50
2022-08-08T02:04:06.230Z,102392.84
2022-08-08T02:06:58.096Z,102392.69
2022-08-08T02:10:02.020Z,102390.09
2022-08-08T02:12:53.352Z,102394.19
2022-08-08T02:15:46.286Z,102397.47
2022-08-08T02:18:26.205Z,102396.84
2022-08-08T02:21:26.672Z,102395.41
2022-08-08T02:24:07.971Z,102393.28
2022-08-08T02:26:55.452Z,102393.28
2022-08-08T02:30:21.317Z,102388.88
2022-08-08T02:33:14.245Z,102386.09
2022-08-08T02:36:08.345Z,102388.19
2022-08-08T02:39:41.137Z,102392.63
2022-08-08T02:44:11.571Z,102386.22
2022-08-08T02:46:31.395Z,102394.09
2022-08-08T02:49:50.948Z,102394.44
2022-08-08T02:52:41.087Z,102400.31
2022-08-08T02:55:36.517Z,102395.38
2022-08-08T02:58:56.440Z,102394.56
2022-08-08T03:02:20.136Z,102396.84
2022-08-08T03:05:18.159Z,102391.97
2022-08-08T03:08:24.281Z,102400.94
2022-08-08T03:11:47.848Z,102395.56
2022-08-08T03:16:00.545Z,102395.41
2022-08-08T03:17:39.737Z,102395.72
2022-08-08T03:20:10.389Z,102396.53
2022-08-08T03:22:56.929Z,102397.69
2022-08-08T03:25:35.626Z,102404.72
2022-08-08T03:28:10.252Z,102407.03
2022-08-08T03:30:35.641Z,102404.09
2022-08-08T03:33:55.987Z,102396.75
2022-08-08T03:36:01.597Z,102405.72
2022-08-08T03:38:54.684Z,102407.34
2022-08-08T03:41:22.892Z,102405.25
2022-08-08T03:43:59.577Z,102411.44
2022-08-08T03:46:25.301Z,102414.88
2022-08-08T03:49:09.988Z,102424.34
2022-08-08T03:51:51.902Z,102416.19
2022-08-08T03:54:40.807Z,102432.66
2022-08-08T03:56:59.865Z,102429.06
2022-08-08T04:00:02.921Z,102430.69
2022-08-08T04:02:47.022Z,102433.81
2022-08-08T04:05:11.073Z,102428.91
2022-08-08T04:07:40.961Z,102424.19
2022-08-08T04:10:05.499Z,102424.19
2022-08-08T04:12:30.032Z,102429.41
2022-08-08T04:14:54.433Z,102427.91
2022-08-08T04:17:45.888Z,102429.56
2022-08-08T04:20:02.454Z,102430.88
2022-08-08T04:22:29.452Z,102427.75
2022-08-08T04:24:54.218Z,102434.97
2022-08-08T04:27:19.665Z,102439.38
2022-08-08T04:30:18.243Z,102435.78
2022-08-08T04:32:46.658Z,102439.38
2022-08-08T04:35:13.125Z,102441.00
2022-08-08T04:37:36.871Z,102439.38
2022-08-08T04:40:08.182Z,102438.56
2022-08-08T04:42:56.732Z,102442.63
2022-08-08T04:45:27.042Z,102445.41
2022-08-08T04:47:50.705Z,102442.97
2022-08-08T04:50:23.588Z,102454.09
2022-08-08T04:52:48.634Z,102452.63
2022-08-08T04:55:21.445Z,102461.09
2022-08-08T04:57:45.982Z,102467.47
2022-08-08T05:00:10.649Z,102468.63
2022-08-08T05:02:32.856Z,102466.34
2022-08-08T05:04:55.463Z,102465.69
2022-08-08T05:07:23.248Z,102471.72
2022-08-08T05:09:45.251Z,102475.00
2022-08-08T05:12:09.442Z,102479.41
2022-08-08T05:14:42.195Z,102479.25
2022-08-08T05:17:08.717Z,102472.03
2022-08-08T05:20:10.049Z,102473.69
2022-08-08T05:22:23.354Z,102473.03
2022-08-08T05:24:48.535Z,102472.88
2022-08-08T05:27:12.794Z,102476.28
2022-08-08T05:29:35.599Z,102478.91
2022-08-08T05:32:05.877Z,102463.22
2022-08-08T05:34:41.352Z,102472.38
2022-08-08T05:37:16.282Z,102477.28
2022-08-08T05:39:50.111Z,102467.81
2022-08-08T05:42:14.937Z,102472.06
2022-08-08T05:44:46.696Z,102476.78
2022-08-08T05:47:14.270Z,102485.28
2022-08-08T05:49:38.291Z,102493.59
2022-08-08T05:52:02.850Z,102491.50
2022-08-08T05:54:42.873Z,102489.81
2022-08-08T05:57:57.856Z,102489.78
2022-08-08T06:00:22.649Z,102492.56
2022-08-08T06:03:13.148Z,102493.69
2022-08-08T06:05:52.149Z,102487.25
2022-08-08T06:08:28.126Z,102496.06
2022-08-08T06:10:59.569Z,102491.78
2022-08-08T06:13:35.648Z,102490.53
2022-08-08T06:16:06.536Z,102493.00
2022-08-08T06:19:01.984Z,102489.94
2022-08-08T06:21:49.056Z,102497.09
2022-08-08T06:24:23.179Z,102492.78
2022-08-08T06:27:07.019Z,102503.66
2022-08-08T06:30:01.125Z,102500.94
2022-08-08T06:32:32.355Z,102512.16
2022-08-08T06:36:04.398Z,102510.09
2022-08-08T06:37:57.958Z,102514.44
2022-08-08T06:40:27.035Z,102519.16
2022-08-08T06:42:57.352Z,102517.72
2022-08-08T06:45:27.797Z,102513.78
2022-08-08T06:48:00.735Z,102518.25
2022-08-08T06:50:33.321Z,102516.63
2022-08-08T06:53:00.761Z,102514.56
2022-08-08T06:55:37.680Z,102519.56
2022-08-08T06:58:04.480Z,102515.84
2022-08-08T07:00:33.251Z,102520.44
2022-08-08T07:03:00.880Z,102511.81
2022-08-08T07:05:40.348Z,102516.47
2022-08-08T07:08:21.119Z,102510.25
2022-08-08T07:10:51.700Z,102515.44
2022-08-08T07:13:18.949Z,102504.59
2022-08-08T07:16:10.071Z,102514.56
2022-08-08T07:19:16.809Z,102521.31
2022-08-08T07:22:11.847Z,102523.25
2022-08-08T07:24:53.490Z,102530.31
2022-08-08T07:27:34.989Z,102527.59
2022-08-08T07:30:13.795Z,102528.50
2022-08-08T07:32:42.713Z,102521.47
2022-08-08T07:35:10.637Z,102533.13
2022-08-08T07:37:55.749Z,102535.19
2022-08-08T07:40:32.522Z,102543.44
2022-08-08T07:43:01.528Z,102532.03
2022-08-08T07:45:26.506Z,102532.34
2022-08-08T07:47:58.497Z,102533.09
2022-08-08T07:50:23.614Z,102536.00
2022-08-08T07:52:56.259Z,102542.13
2022-08-08T07:55:29.047Z,102545.56
2022-08-08T07:58:28.177Z,102539.22
2022-08-08T08:00:56.154Z,102540.13
2022-08-08T08:03:43.514Z,102539.56
2022-08-08T08:06:11.947Z,102542.31
2022-08-08T08:08:59.537Z,102550.44
2022-08-08T08:11:34.125Z,102548.66
2022-08-08T08:14:17.301Z,102553.97
2022-08-08T08:16:50.496Z,102550.91
2022-08-08T08:19:18.091Z,102555.03
2022-08-08T08:21:57.595Z,102559.25
2022-08-08T08:24:31.912Z,102558.16
2022-08-08T08:26:55.968Z,102553.88
2022-08-08T08:29:19.446Z,102557.34
2022-08-08T08:31:42.364Z,102553.19
2022-08-08T08:34:05.720Z,102559.09
2022-08-08T08:36:29.957Z,102566.72
2022-08-08T08:38:53.973Z,102561.38
2022-08-08T08:41:24.078Z,102562.00
2022-08-08T08:43:51.081Z,102566.94
2022-08-08T08:46:17.738Z,102561.44
2022-08-08T08:48:49.520Z,102563.44
2022-08-08T08:51:17.720Z,102567.50
2022-08-08T08:53:55.139Z,102566.78
2022-08-08T08:56:25.130Z,102580.59
2022-08-08T08:58:58.411Z,102572.22
2022-08-08T09:01:35.859Z,102568.81
2022-08-08T09:04:10.169Z,102558.72
2022-08-08T09:06:53.666Z,102560.56
2022-08-08T09:09:39.901Z,102571.13
2022-08-08T09:12:11.670Z,102563.13
2022-08-08T09:14:42.231Z,102568.31
2022-08-08T09:17:12.807Z,102558.25
2022-08-08T09:22:01.959Z,102564.34
2022-08-08T09:22:26.774Z,102563.22
2022-08-08T09:24:53.204Z,102566.94
2022-08-08T09:27:21.209Z,102557.47
2022-08-08T09:30:10.986Z,102564.84
2022-08-08T09:33:55.561Z,102556.88
2022-08-08T09:35:49.910Z,102558.56
2022-08-08T09:38:31.968Z,102561.09
2022-08-08T09:41:04.645Z,102554.09
2022-08-08T09:44:04.370Z,102555.13
2022-08-08T09:46:25.143Z,102557.28
2022-08-08T09:48:54.841Z,102550.41
2022-08-08T09:51:28.579Z,102547.97
2022-08-08T09:54:09.325Z,102553.69
2022-08-08T09:56:44.649Z,102553.38
2022-08-08T09:59:48.212Z,102552.56
2022-08-08T10:02:02.914Z,102562.84
2022-08-08T10:04:42.168Z,102563.59
2022-08-08T10:07:15.968Z,102553.56
2022-08-08T10:09:58.867Z,102559.63
2022-08-08T10:12:38.846Z,102560.09
2022-08-08T10:15:17.391Z,102554.53
2022-08-08T10:18:05.600Z,102550.38
2022-08-08T10:20:57.507Z,102551.22
2022-08-08T10:23:43.352Z,102553.69
2022-08-08T10:26:26.123Z,102555.84
2022-08-08T10:29:11.439Z,102549.19
2022-08-08T10:31:55.360Z,102545.25
2022-08-08T10:34:21.353Z,102542.81
2022-08-08T10:36:46.519Z,102551.09
2022-08-08T10:39:13.916Z,102557.28
2022-08-08T10:42:13.065Z,102558.69
2022-08-08T10:44:38.220Z,102539.94
2022-08-08T10:47:16.384Z,102545.78
2022-08-08T10:50:01.434Z,102541.88
2022-08-08T10:52:38.655Z,102536.16
2022-08-08T10:55:40.415Z,102547.25
2022-08-08T10:58:09.727Z,102545.38
2022-08-08T11:00:33.425Z,102537.72
2022-08-08T11:03:12.599Z,102539.81
2022-08-08T11:06:12.587Z,102536.84
2022-08-08T11:08:42.024Z,102530.13
2022-08-08T11:11:32.005Z,102526.72
2022-08-08T11:13:51.882Z,102524.38
2022-08-08T11:16:32.461Z,102527.94
2022-08-08T11:18:57.325Z,102534.97
2022-08-08T11:21:20.635Z,102537.19
2022-08-08T11:23:43.619Z,102535.78
2022-08-08T11:26:07.130Z,102539.22
2022-08-08T11:28:38.599Z,102534.97
2022-08-08T11:31:04.558Z,102520.97
2022-08-08T11:33:51.219Z,102525.69
2022-08-08T11:36:15.076Z,102521.06
2022-08-08T11:38:43.776Z,102523.94
2022-08-08T11:41:18.605Z,102525.19
2022-08-08T11:43:42.757Z,102515.59
2022-08-08T11:46:14.333Z,102518.81
2022-08-08T11:48:42.100Z,102507.59
2022-08-08T11:51:30.581Z,102511.28
2022-08-08T11:53:59.202Z,102509.28
2022-08-08T11:56:24.382Z,102505.25
2022-08-08T11:58:47.805Z,102511.28
2022-08-08T12:01:17.162Z,102502.72
2022-08-08T12:03:50.065Z,102501.84
2022-08-08T12:06:18.740Z,102500.25
2022-08-08T12:08:41.799Z,102507.06
2022-08-08T12:11:26.829Z,102502.22
2022-08-08T12:14:03.506Z,102510.66
2022-08-08T12:16:30.873Z,102500.91
2022-08-08T12:18:57.191Z,102500.06
2022-08-08T12:21:58.473Z,102495.69
2022-08-08T12:24:27.853Z,102496.59
2022-08-08T12:26:54.444Z,102494.69
2022-08-08T12:29:40.224Z,102488.28
2022-08-08T12:32:20.093Z,102498.38
2022-08-08T12:34:52.107Z,102483.84
2022-08-08T12:37:40.747Z,102489.94
2022-08-08T12:40:23.806Z,102488.34
2022-08-08T12:42:48.492Z,102489.13
2022-08-08T12:45:53.961Z,102489.03
2022-08-08T12:48:18.147Z,102499.44
2022-08-08T12:50:58.318Z,102487.38
2022-08-08T12:53:37.606Z,102483.81
2022-08-08T12:56:19.116Z,102489.91
2022-08-08T12:58:50.964Z,102500.00
2022-08-08T13:01:13.679Z,102489.97
2022-08-08T13:03:35.946Z,102488.28
2022-08-08T13:06:19.094Z,102487.50
2022-08-08T13:08:53.524Z,102477.84
2022-08-08T13:11:19.341Z,102477.00
2022-08-08T13:13:41.334Z,102485.84
2022-08-08T13:16:25.567Z,102476.97
2022-08-08T13:18:57.230Z,102473.31
2022-08-08T13:21:22.228Z,102478.97
2022-08-08T13:23:49.637Z,102468.47
2022-08-08T13:26:15.401Z,102473.75
2022-08-08T13:28:37.585Z,102468.03
2022-08-08T13:31:04.996Z,102476.13
2022-08-08T13:33:27.020Z,102475.34
2022-08-08T13:36:07.212Z,102474.13
2022-08-08T13:38:31.094Z,102474.97
2022-08-08T13:40:53.204Z,102469.72
2022-08-08T13:43:16.830Z,102467.28
2022-08-08T13:45:39.054Z,102463.28
2022-08-08T13:48:08.524Z,102462.06
2022-08-08T13:50:48.005Z,102454.41
2022-08-08T13:53:25.177Z,102458.38
2022-08-08T13:56:01.528Z,102455.16
2022-08-08T13:58:24.079Z,102456.38
2022-08-08T14:00:51.124Z,102462.09
2022-08-08T14:03:47.353Z,102464.91
2022-08-08T14:06:32.015Z,102454.41
2022-08-08T14:08:56.910Z,102458.03
2022-08-08T14:11:27.978Z,102438.63
2022-08-08T14:13:59.577Z,102457.56
2022-08-08T14:16:22.367Z,102443.84
2022-08-08T14:19:01.028Z,102450.38
2022-08-08T14:21:52.070Z,102448.34
2022-08-08T14:24:31.304Z,102443.09
2022-08-08T14:26:55.179Z,102438.22
2022-08-08T14:29:30.447Z,102438.63
2022-08-08T14:32:09.444Z,102441.41
2022-08-08T14:34:37.003Z,102450.69
2022-08-08T14:37:08.520Z,102440.97
2022-08-08T14:39:53.757Z,102446.22
2022-08-08T14:42:16.646Z,102445.84
2022-08-08T14:44:39.477Z,102442.25
2022-08-08T14:47:01.740Z,102440.22
2022-08-08T14:49:51.469Z,102441.81
2022-08-08T14:52:16.937Z,102443.00
2022-08-08T14:54:48.413Z,102436.13
2022-08-08T14:57:10.843Z,102437.34
2022-08-08T14:59:50.182Z,102433.75
2022-08-08T15:02:21.397Z,102432.50
2022-08-08T15:04:47.379Z,102431.34
2022-08-08T15:07:24.445Z,102442.28
2022-08-08T15:09:53.427Z,102439.84
2022-08-08T15:12:16.171Z,102439.03
2022-08-08T15:14:49.592Z,102441.84
2022-08-08T15:17:11.751Z,102435.78
2022-08-08T15:19:33.655Z,102429.28
2022-08-08T15:21:55.838Z,102441.78
2022-08-08T15:24:19.973Z,102438.13
2022-08-08T15:26:52.459Z,102431.66
2022-08-08T15:29:15.021Z,102430.03
2022-08-08T15:32:02.535Z,102425.56
2022-08-08T15:34:29.634Z,102428.38
2022-08-08T15:36:53.515Z,102432.41
2022-08-08T15:39:16.431Z,102422.72
2022-08-08T15:41:44.066Z,102425.97
2022-08-08T15:44:12.623Z,102430.03
2022-08-08T15:46:36.211Z,102422.31
2022-08-08T15:48:58.094Z,102426.75
2022-08-08T15:51:22.692Z,102422.72
2022-08-08T15:53:50.315Z,102428.88
2022-08-08T15:56:13.210Z,102423.22
2022-08-08T15:58:38.650Z,102434.16
2022-08-08T16:01:08.091Z,102422.06
2022-08-08T16:03:30.475Z,102424.50
2022-08-08T16:06:01.756Z,102421.25
2022-08-08T16:08:25.675Z,102414.81
2022-08-08T16:13:05.149Z,102422.88
2022-08-08T16:13:45.917Z,102416.81
2022-08-08T16:16:17.352Z,102421.66
2022-08-08T16:18:40.557Z,102424.47
2022-08-08T16:21:03.653Z,102426.13
2022-08-08T16:23:36.687Z,102426.16
2022-08-08T16:26:17.484Z,102414.81
2022-08-08T16:28:41.763Z,102420.47
2022-08-08T16:31:07.818Z,102420.41
2022-08-08T16:33:38.934Z,102425.22
2022-08-08T16:36:01.870Z,102428.38
2022-08-08T16:38:31.767Z,102427.97
2022-08-08T16:40:53.978Z,102429.63
2022-08-08T16:43:15.954Z,102429.25
2022-08-08T16:46:38.840Z,102424.81
2022-08-08T16:48:22.325Z,102426.44
2022-08-08T16:50:45.515Z,102426.84
2022-08-08T16:55:05.346Z,102432.91
2022-08-08T16:55:55.417Z,102435.69
2022-08-08T16:58:20.302Z,102442.91
2022-08-08T17:00:42.991Z,102433.53
2022-08-08T17:03:11.806Z,102439.50
2022-08-08T17:05:44.683Z,102447.44
2022-08-08T17:08:07.315Z,102437.25
2022-08-08T17:10:31.466Z,102428.38
2022-08-08T17:12:53.499Z,102428.00
2022-08-08T17:15:17.767Z,102429.59
2022-08-08T17:18:02.673Z,102429.91
2022-08-08T17:20:26.018Z,102429.78
2022-08-08T17:22:59.925Z,102426.09
2022-08-08T17:25:41.828Z,102434.19
2022-08-08T17:28:13.572Z,102434.31
2022-08-08T17:30:35.546Z,102440.03
2022-08-08T17:34:48.296Z,102439.22
2022-08-08T17:35:55.267Z,102441.66
2022-08-08T17:38:21.807Z,102447.34
2022-08-08T17:40:44.684Z,102452.63
2022-08-08T17:43:12.397Z,102449.78
2022-08-08T17:45:36.591Z,102451.38
2022-08-08T17:47:58.999Z,102449.38
2022-08-08T17:50:22.016Z,102446.97
2022-08-08T17:52:47.840Z,102451.03
2022-08-08T17:56:08.168Z,102451.06
2022-08-08T17:57:53.814Z,102454.69
2022-08-08T18:00:19.664Z,102453.50
2022-08-08T18:02:52.422Z,102458.00
2022-08-08T18:05:30.281Z,102456.09
2022-08-08T18:08:10.897Z,102461.81
2022-08-08T18:10:39.189Z,102466.69
2022-08-08T18:13:04.064Z,102464.31
2022-08-08T18:15:31.340Z,102462.00
2022-08-08T18:18:09.216Z,102462.03
2022-08-08T18:20:43.057Z,102467.31
2022-08-08T18:23:16.465Z,102456.81
2022-08-08T18:25:38.429Z,102464.09
2022-08-08T18:28:00.902Z,102463.69
2022-08-08T18:30:23.036Z,102462.84
2022-08-08T18:32:45.504Z,102474.13
2022-08-08T18:35:09.834Z,102473.97
2022-08-08T18:37:47.893Z,102473.34
2022-08-08T18:40:13.066Z,102478.69
2022-08-08T18:42:36.256Z,102481.28
2022-08-08T18:45:00.180Z,102484.25
2022-08-08T18:47:31.536Z,102488.09
2022-08-08T18:49:59.925Z,102487.91
2022-08-08T18:52:23.423Z,102498.59
2022-08-08T18:54:45.892Z,102489.97
2022-08-08T18:57:22.967Z,102499.78
2022-08-08T18:59:45.584Z,102510.47
2022-08-08T19:02:28.816Z,102503.44
2022-08-08T19:04:51.257Z,102515.31
2022-08-08T19:07:13.232Z,102519.56
2022-08-08T19:09:49.502Z,102520.59
2022-08-08T19:12:26.311Z,102529.22
2022-08-08T19:14:48.671Z,102531.50
2022-08-08T19:17:11.185Z,102530.53
2022-08-08T19:19:32.977Z,102527.97
2022-08-08T19:21:54.857Z,102533.03
2022-08-08T19:24:39.166Z,102538.50
2022-08-08T19:27:02.584Z,102542.78
2022-08-08T19:29:25.779Z,102544.25
2022-08-08T19:31:48.278Z,102555.34
2022-08-08T19:34:30.307Z,102557.66
2022-08-08T19:36:52.449Z,102555.88
2022-08-08T19:39:14.527Z,102564.22
2022-08-08T19:41:36.441Z,102564.06
2022-08-08T19:44:03.751Z,102562.31
2022-08-08T19:46:34.568Z,102563.31
2022-08-08T19:48:57.294Z,102576.03
2022-08-08T19:51:24.824Z,102574.31
2022-08-08T19:53:55.825Z,102568.59
2022-08-08T19:56:25.749Z,102573.34
2022-08-08T19:58:59.563Z,102585.16
2022-08-08T20:01:31.548Z,102594.66
2022-08-08T20:04:04.913Z,102594.94
2022-08-08T20:06:27.251Z,102592.44
2022-08-08T20:08:49.227Z,102589.09
2022-08-08T20:11:11.337Z,102590.19
2022-08-08T20:14:34.754Z,102592.91
2022-08-08T20:16:15.657Z,102593.97
2022-08-08T20:18:53.098Z,102591.44
2022-08-08T20:21:16.208Z,102592.53
2022-08-08T20:23:45.237Z,102591.28
2022-08-08T20:26:08.847Z,102591.53
2022-08-08T20:28:33.326Z,102597.34
2022-08-08T20:30:56.501Z,102597.97
2022-08-08T20:35:59.558Z,102603.84
2022-08-08T20:38:29.089Z,102604.09
2022-08-08T20:40:54.358Z,102599.56
2022-08-08T20:43:42.960Z,102599.00
2022-08-08T20:46:03.961Z,102603.78
2022-08-08T20:48:28.294Z,102597.28
2022-08-08T20:50:50.486Z,102602.75
2022-08-08T20:53:16.535Z,102600.69
2022-08-08T20:55:57.112Z,102608.16
2022-08-08T20:58:22.884Z,102601.69
2022-08-08T21:00:45.233Z,102609.63
2022-08-08T21:03:07.164Z,102612.75
2022-08-08T21:05:31.919Z,102606.22
2022-08-08T21:08:33.806Z,102606.03
2022-08-08T21:10:35.967Z,102605.84
2022-08-08T21:12:57.845Z,102604.94
2022-08-08T21:16:05.003Z,102612.06
2022-08-08T21:18:01.989Z,102611.13
2022-08-08T21:20:23.950Z,102607.84
2022-08-08T21:22:56.684Z,102601.81
2022-08-08T21:25:20.110Z,102610.91
2022-08-08T21:28:09.767Z,102613.63
2022-08-08T21:30:24.948Z,102608.63
2022-08-08T21:32:52.180Z,102601.28
2022-08-08T21:36:19.127Z,102602.34
2022-08-08T21:38:03.699Z,102607.47
2022-08-08T21:40:31.413Z,102600.94
2022-08-08T21:42:53.539Z,102602.81
2022-08-08T21:45:44.621Z,102605.50
2022-08-08T21:48:10.016Z,102607.38
2022-08-08T21:50:43.189Z,102611.31
2022-08-08T21:54:27.407Z,102611.22
2022-08-08T21:56:28.103Z,102615.06
2022-08-08T21:58:37.649Z,102612.97
2022-08-08T22:01:04.035Z,102625.66
2022-08-08T22:03:26.438Z,102618.44
2022-08-08T22:05:58.172Z,102621.59
2022-08-08T22:08:24.357Z,102627.53
2022-08-08T22:10:48.596Z,102626.25
2022-08-08T22:13:18.932Z,102627.75
2022-08-08T22:15:41.511Z,102628.00
2022-08-08T22:18:04.924Z,102635.56
2022-08-08T22:20:34.380Z,102622.28
2022-08-08T22:23:03.710Z,102627.06
2022-08-08T22:25:29.663Z,102619.84
2022-08-08T22:29:04.722Z,102622.03
2022-08-08T22:30:57.207Z,102627.53
2022-08-08T22:34:11.186Z,102627.06
2022-08-08T22:36:04.530Z,102629.38
2022-08-08T22:38:34.268Z,102632.88
2022-08-08T22:40:57.761Z,102628.47
2022-08-08T22:43:20.396Z,102630.78
2022-08-08T22:45:46.477Z,102637.50
2022-08-08T22:48:14.913Z,102632.75
2022-08-08T22:50:44.187Z,102633.09
2022-08-08T22:54:32.566Z,102631.47
2022-08-08T22:55:59.556Z,102636.59
2022-08-08T22:58:28.535Z,102642.19
2022-08-08T23:00:54.334Z,102644.97
2022-08-08T23:03:16.685Z,102647.63
2022-08-08T23:05:38.946Z,102648.34
2022-08-08T23:08:17.861Z,102647.75
2022-08-08T23:10:41.889Z,102647.94
2022-08-08T23:13:05.208Z,102654.19
2022-08-08T23:16:40.756Z,102645.34
2022-08-08T23:18:11.539Z,102647.22
2022-08-08T23:20:34.322Z,102645.94
2022-08-08T23:22:56.774Z,102644.63
2022-08-08T23:25:18.865Z,102642.50
2022-08-08T23:27:46.694Z,102648.47
2022-08-08T23:30:09.833Z,102636.00
2022-08-08T23:32:33.201Z,102636.34
2022-08-08T23:34:58.775Z,102644.13
2022-08-08T23:37:24.610Z,102639.91
2022-08-08T23:39:49.510Z,102636.63
2022-08-08T23:42:17.581Z,102638.13
2022-08-08T23:44:43.134Z,102636.53
2022-08-08T23:49:06.767Z,102637.22
2022-08-08T23:49:49.721Z,102641.50
2022-08-08T23:52:25.476Z,102641.34
2022-08-08T23:54:59.917Z,102647.75
2022-08-08T23:57:39.171Z,102648.44
